Time;durP1;ratioP1;P1;durP2;ratioP2;P2;SDS_P1;SDS_P2;PMS_P1;PMS_P2;Temp;Humidity;BMP_temperature;BMP_pressure;BME280_temperature;BME280_humidity;BME280_pressure;Samples;Min_cycle;Max_cycle;Signal;HPM_P1;HPM_P2
2020/12/26 00:02:05;;;;;;;28.88;12.98;;;;;;;0.58;99.16;102399.66;6151461;23;20025;-94
2020/12/26 00:04:31;;;;;;;25.90;15.02;;;;;;;0.58;99.52;102404.94;6152608;23;20387;-94
2020/12/26 00:06:56;;;;;;;20.98;13.30;;;;;;;0.55;99.37;102388.25;6155648;23;20013;-94
2020/12/26 00:09:23;;;;;;;22.00;13.07;;;;;;;0.60;99.10;102387.22;6151940;23;20013;-93
2020/12/26 00:11:51;;;;;;;22.55;14.10;;;;;;;0.59;99.09;102381.97;6152592;23;20028;-93
2020/12/26 00:14:17;;;;;;;24.15;13.38;;;;;;;0.55;99.16;102383.81;6152218;23;20049;-94
2020/12/26 00:16:43;;;;;;;21.98;13.15;;;;;;;0.57;99.35;102381.13;6139479;23;20526;-93
2020/12/26 00:19:09;;;;;;;19.63;12.60;;;;;;;0.61;99.52;102391.63;6172727;23;20026;-94
2020/12/26 00:21:41;;;;;;;25.85;14.27;;;;;;;0.64;99.50;102391.56;6153520;23;20072;-93
2020/12/26 00:24:10;;;;;;;26.25;13.50;;;;;;;0.68;98.96;102393.22;6175836;23;20025;-93
2020/12/26 00:26:35;;;;;;;26.77;13.97;;;;;;;0.69;99.31;102397.63;6156019;23;20088;-94
2020/12/26 00:29:01;;;;;;;27.90;15.00;;;;;;;0.68;99.18;102395.03;6152347;23;20244;-94
2020/12/26 00:31:26;;;;;;;24.98;14.07;;;;;;;0.67;98.94;102388.84;6151653;23;20010;-93
2020/12/26 00:33:53;;;;;;;23.45;13.43;;;;;;;0.69;99.29;102387.03;6152224;23;20025;-94
2020/12/26 00:36:18;;;;;;;30.92;13.77;;;;;;;0.69;99.26;102386.16;6152026;23;20047;-94
2020/12/26 00:38:45;;;;;;;21.92;13.48;;;;;;;0.80;99.42;102384.13;6152460;23;20096;-95
2020/12/26 00:41:13;;;;;;;25.77;13.40;;;;;;;0.83;99.42;102376.09;6139382;23;20055;-95
2020/12/26 00:43:40;;;;;;;22.48;13.05;;;;;;;0.89;99.34;102382.19;6152654;23;20044;-93
2020/12/26 00:46:05;;;;;;;21.73;13.48;;;;;;;0.92;98.66;102388.28;6151283;23;20013;-93
2020/12/26 00:48:32;;;;;;;22.08;13.23;;;;;;;0.88;98.90;102381.28;6152478;23;20499;-94
2020/12/26 00:50:57;;;;;;;28.75;13.63;;;;;;;0.86;99.00;102375.16;6155641;23;20624;-93
2020/12/26 00:53:24;;;;;;;24.92;12.65;;;;;;;0.91;99.15;102380.34;6156669;23;20037;-93
2020/12/26 00:55:51;;;;;;;23.80;13.02;;;;;;;0.90;99.01;102376.84;6158317;23;20044;-94
2020/12/26 00:58:17;;;;;;;24.08;13.43;;;;;;;0.90;99.24;102374.19;6156491;23;20044;-93
2020/12/26 01:00:43;;;;;;;23.10;12.85;;;;;;;1.00;99.16;102381.03;6157556;23;20021;-95
2020/12/26 01:03:09;;;;;;;19.42;11.90;;;;;;;1.03;98.79;102356.19;6156943;23;20474;-95
2020/12/26 01:05:34;;;;;;;25.55;12.98;;;;;;;1.04;98.74;102368.56;6157404;23;20073;-93
2020/12/26 01:08:00;;;;;;;20.58;12.07;;;;;;;1.04;99.22;102369.41;6157501;23;20013;-94
2020/12/26 01:10:27;;;;;;;22.25;12.18;;;;;;;1.18;98.81;102368.22;6154816;23;20064;-94
2020/12/26 01:12:52;;;;;;;24.77;12.00;;;;;;;1.22;98.97;102375.16;6157288;23;20088;-94
2020/12/26 01:15:18;;;;;;;20.85;10.82;;;;;;;1.27;98.67;102373.28;6156240;23;20043;-95
2020/12/26 01:17:43;;;;;;;19.60;10.00;;;;;;;1.29;99.32;102386.50;6155998;23;20021;-94
2020/12/26 01:20:11;;;;;;;16.80;10.02;;;;;;;1.36;99.11;102381.00;6149417;23;20088;-94
2020/12/26 01:22:37;;;;;;;19.63;9.68;;;;;;;1.47;98.72;102380.72;6127975;23;20021;-94
2020/12/26 01:25:05;;;;;;;17.85;10.00;;;;;;;1.55;98.71;102378.75;6151662;23;20050;-94
2020/12/26 01:27:31;;;;;;;20.58;10.20;;;;;;;1.56;98.30;102379.59;6117442;23;20021;-94
2020/12/26 01:29:56;;;;;;;16.30;9.63;;;;;;;1.63;98.84;102381.19;6132660;23;20013;-94
2020/12/26 01:32:28;;;;;;;16.63;9.65;;;;;;;1.64;98.48;102377.63;6160212;23;20380;-94
2020/12/26 01:35:03;;;;;;;14.90;8.60;;;;;;;1.68;98.08;102379.31;6156629;23;20017;-94
2020/12/26 01:37:28;;;;;;;14.95;9.20;;;;;;;1.68;98.47;102378.41;6149211;23;20019;-95
2020/12/26 01:39:54;;;;;;;19.25;9.20;;;;;;;1.67;98.11;102374.91;6125165;23;20044;-94
2020/12/26 01:42:20;;;;;;;17.08;9.18;;;;;;;1.70;98.47;102369.50;6159995;23;20017;-94
2020/12/26 01:45:08;;;;;;;15.63;9.32;;;;;;;1.68;98.91;102368.69;6160249;23;20092;-94
2020/12/26 01:47:34;;;;;;;15.57;8.82;;;;;;;1.71;98.65;102368.59;6189854;23;20029;-95
2020/12/26 01:50:00;;;;;;;21.58;9.65;;;;;;;1.73;99.02;102366.75;6162670;23;20009;-95
2020/12/26 01:52:27;;;;;;;17.58;10.13;;;;;;;1.70;98.99;102356.22;6157112;23;20117;-95
2020/12/26 01:54:53;;;;;;;17.35;9.68;;;;;;;1.73;99.02;102376.53;6156038;23;20055;-95
2020/12/26 01:57:18;;;;;;;18.92;10.32;;;;;;;1.67;98.65;102377.56;6159229;23;20005;-96
2020/12/26 01:59:44;;;;;;;20.55;11.07;;;;;;;1.68;98.96;102371.34;6147751;23;20041;-94
2020/12/26 02:02:09;;;;;;;22.92;11.60;;;;;;;1.78;98.93;102371.09;6158586;23;20017;-94
2020/12/26 02:04:35;;;;;;;20.05;10.10;;;;;;;1.74;98.93;102379.13;6157082;23;20458;-94
2020/12/26 02:07:02;;;;;;;17.80;10.52;;;;;;;1.77;99.09;102366.69;6154478;23;20095;-95
2020/12/26 02:09:30;;;;;;;18.17;10.25;;;;;;;1.77;99.05;102371.97;6158202;23;20017;-94
2020/12/26 02:11:57;;;;;;;25.42;10.85;;;;;;;1.85;99.75;102365.56;6148419;23;20017;-94
2020/12/26 02:14:24;;;;;;;18.77;9.85;;;;;;;1.95;99.38;102368.84;6137339;23;20009;-95
2020/12/26 02:16:52;;;;;;;18.10;9.95;;;;;;;1.90;99.77;102357.47;6158482;23;20017;-94
2020/12/26 02:19:39;;;;;;;20.15;10.75;;;;;;;1.92;99.77;102347.69;6157675;23;20096;-94
2020/12/26 02:22:05;;;;;;;21.05;11.38;;;;;;;1.86;99.08;102351.38;6178121;23;20055;-94
2020/12/26 02:24:45;;;;;;;18.75;11.90;;;;;;;1.85;99.96;102348.75;6161478;23;20013;-94
2020/12/26 02:27:13;;;;;;;26.02;12.10;;;;;;;1.85;99.56;102354.06;6159021;23;20375;-94
2020/12/26 02:29:39;;;;;;;19.80;13.82;;;;;;;1.89;100.00;102347.78;6161713;23;20095;-95
2020/12/26 02:32:04;;;;;;;25.10;13.55;;;;;;;1.79;99.93;102346.28;6155993;23;20021;-95
2020/12/26 02:34:33;;;;;;;24.75;13.98;;;;;;;1.76;99.54;102339.28;6160869;23;20351;-94
2020/12/26 02:37:00;;;;;;;19.08;12.93;;;;;;;1.79;100.00;102338.31;6160577;23;20036;-94
2020/12/26 02:39:26;;;;;;;19.30;12.20;;;;;;;1.73;100.00;102326.09;6159680;23;20351;-95
2020/12/26 02:41:52;;;;;;;27.77;13.15;;;;;;;1.72;99.83;102324.34;6128682;23;20017;-95
2020/12/26 02:44:38;;;;;;;24.20;13.93;;;;;;;1.70;100.00;102313.75;6132384;23;20021;-95
2020/12/26 02:47:07;;;;;;;19.85;12.93;;;;;;;1.72;100.00;102301.34;6134677;23;20044;-95
2020/12/26 02:49:34;;;;;;;23.80;13.32;;;;;;;1.65;100.00;102289.16;6162968;23;20025;-96
2020/12/26 02:52:00;;;;;;;26.33;13.77;;;;;;;1.64;100.00;102287.41;6188202;23;20013;-94
2020/12/26 02:54:30;;;;;;;24.15;14.23;;;;;;;1.64;100.00;102292.72;6145733;23;20044;-89
2020/12/26 02:56:57;;;;;;;24.38;13.65;;;;;;;1.65;100.00;102299.75;6126598;23;20018;-89
2020/12/26 02:59:23;;;;;;;25.92;13.75;;;;;;;1.63;100.00;102285.66;6101550;23;20013;-89
2020/12/26 03:01:48;;;;;;;26.08;12.15;;;;;;;1.58;100.00;102275.16;6088996;23;20093;-89
2020/12/26 03:04:14;;;;;;;21.77;13.88;;;;;;;1.55;100.00;102262.00;6100780;23;20115;-89
2020/12/26 03:06:46;;;;;;;23.75;11.90;;;;;;;1.50;100.00;102245.34;6133563;23;20021;-89
2020/12/26 03:09:11;;;;;;;27.70;12.95;;;;;;;1.48;100.00;102241.84;6118020;23;20013;-89
2020/12/26 03:11:39;;;;;;;20.25;11.57;;;;;;;1.45;100.00;102231.31;6130476;23;20079;-89
2020/12/26 03:14:07;;;;;;;25.58;12.27;;;;;;;1.46;100.00;102219.81;6130511;23;20040;-89
2020/12/26 03:16:38;;;;;;;24.38;13.13;;;;;;;1.45;100.00;102223.38;6130613;23;20013;-89
2020/12/26 03:19:04;;;;;;;19.83;12.57;;;;;;;1.39;100.00;102224.41;6130942;23;20028;-89
2020/12/26 03:21:32;;;;;;;25.05;12.30;;;;;;;1.48;100.00;102222.41;6131121;23;20027;-88
2020/12/26 03:23:57;;;;;;;19.75;12.13;;;;;;;1.40;100.00;102226.16;6131576;23;20355;-89
2020/12/26 03:26:34;;;;;;;22.67;12.25;;;;;;;1.40;100.00;102231.47;6130525;23;20005;-88
2020/12/26 03:29:03;;;;;;;18.10;11.52;;;;;;;1.42;100.00;102228.75;6143565;23;20024;-89
2020/12/26 03:31:28;;;;;;;25.35;13.15;;;;;;;1.36;100.00;102224.50;6179389;23;20021;-89
2020/12/26 03:33:56;;;;;;;23.60;13.73;;;;;;;1.37;100.00;102220.03;6141436;23;20020;-89
2020/12/26 03:36:25;;;;;;;23.17;13.45;;;;;;;1.35;100.00;102221.88;6140324;23;20013;-89
2020/12/26 03:38:50;;;;;;;28.50;15.18;;;;;;;1.40;100.00;102226.16;6146813;23;20081;-89
2020/12/26 03:41:18;;;;;;;23.95;13.77;;;;;;;1.45;100.00;102223.38;6142490;23;20017;-89
2020/12/26 03:43:52;;;;;;;21.13;13.77;;;;;;;1.47;100.00;102225.97;6156040;23;20013;-89
2020/12/26 03:46:20;;;;;;;29.70;14.82;;;;;;;1.35;100.00;102228.03;6154034;23;20483;-89
2020/12/26 03:48:51;;;;;;;26.60;14.70;;;;;;;1.36;100.00;102224.50;6155729;23;20017;-89
2020/12/26 03:51:20;;;;;;;26.60;13.40;;;;;;;1.32;100.00;102221.97;6138871;23;20096;-90
2020/12/26 03:53:48;;;;;;;29.88;15.10;;;;;;;1.35;100.00;102216.56;6155776;23;20512;-88
2020/12/26 03:56:22;;;;;;;30.55;15.20;;;;;;;1.25;100.00;102208.00;6159003;23;20009;-89
2020/12/26 03:58:50;;;;;;;30.27;16.45;;;;;;;1.27;100.00;102211.50;6160617;23;20505;-89
2020/12/26 04:01:15;;;;;;;25.65;14.77;;;;;;;1.32;100.00;102212.22;6158876;23;20013;-88
2020/12/26 04:03:43;;;;;;;26.20;15.05;;;;;;;1.30;100.00;102216.72;6148375;23;20776;-89
2020/12/26 04:06:11;;;;;;;28.95;14.80;;;;;;;1.30;100.00;102216.72;6157887;23;20017;-89
2020/12/26 04:08:36;;;;;;;30.00;15.57;;;;;;;1.31;100.00;102217.56;6160830;23;20020;-90
2020/12/26 04:11:04;;;;;;;24.25;14.23;;;;;;;1.34;100.00;102217.47;6159092;23;20020;-89
2020/12/26 04:13:29;;;;;;;25.10;13.95;;;;;;;1.29;100.00;102214.97;6186083;23;20239;-90
2020/12/26 04:15:55;;;;;;;22.45;13.35;;;;;;;1.26;100.00;102209.75;6140116;23;20024;-89
2020/12/26 04:18:23;;;;;;;27.90;15.10;;;;;;;1.26;100.00;102206.22;6159585;23;20021;-90
2020/12/26 04:20:49;;;;;;;21.10;13.30;;;;;;;1.19;100.00;102201.09;6171079;23;20020;-89
2020/12/26 04:23:15;;;;;;;22.95;14.63;;;;;;;1.19;100.00;102203.75;6145337;23;20018;-89
2020/12/26 04:25:46;;;;;;;22.70;13.30;;;;;;;1.20;100.00;102192.22;6159693;23;20074;-89
2020/12/26 04:28:11;;;;;;;24.60;14.40;;;;;;;1.14;100.00;102180.94;6169780;23;20019;-89
2020/12/26 04:30:37;;;;;;;20.92;13.35;;;;;;;1.14;100.00;102189.75;6140012;23;20487;-90
2020/12/26 04:33:05;;;;;;;25.60;15.13;;;;;;;1.17;100.00;102187.00;6141927;23;20021;-90
2020/12/26 04:35:33;;;;;;;27.33;16.15;;;;;;;1.13;100.00;102164.13;6159507;23;20021;-89
2020/12/26 04:38:02;;;;;;;26.58;15.48;;;;;;;1.16;100.00;102168.47;6160406;23;20324;-90
2020/12/26 04:40:27;;;;;;;25.57;16.27;;;;;;;1.22;100.00;102170.97;6091362;23;20355;-89
2020/12/26 04:42:52;;;;;;;30.42;16.67;;;;;;;1.24;100.00;102166.50;6154530;23;20013;-89
2020/12/26 04:45:18;;;;;;;29.77;16.52;;;;;;;1.26;100.00;102164.66;6129086;23;20013;-89
2020/12/26 04:48:04;;;;;;;27.15;16.83;;;;;;;1.29;100.00;102166.34;6130944;23;20707;-89
2020/12/26 04:50:47;;;;;;;26.92;16.40;;;;;;;1.29;100.00;102159.25;6128803;23;20471;-90
2020/12/26 04:53:17;;;;;;;28.40;15.63;;;;;;;1.29;100.00;102159.25;6110537;23;20020;-90
2020/12/26 04:55:50;;;;;;;31.90;17.42;;;;;;;1.29;100.00;102159.25;6145377;23;20025;-89
2020/12/26 04:58:19;;;;;;;28.38;17.48;;;;;;;1.36;100.00;102159.97;6116459;23;20041;-89
2020/12/26 05:00:47;;;;;;;27.07;16.17;;;;;;;1.36;100.00;102152.88;6130502;23;20024;-90
2020/12/26 05:03:15;;;;;;;27.13;16.58;;;;;;;1.40;100.00;102149.22;6129636;23;20017;-89
2020/12/26 05:05:42;;;;;;;26.67;15.35;;;;;;;1.44;100.00;102133.22;6128820;23;20044;-90
2020/12/26 05:08:08;;;;;;;24.48;16.30;;;;;;;1.43;100.00;102139.41;6115322;23;20066;-89
2020/12/26 05:10:34;;;;;;;23.70;14.60;;;;;;;1.44;100.00;102138.50;6110563;23;20024;-89
2020/12/26 05:13:02;;;;;;;24.10;15.80;;;;;;;1.46;100.00;102139.31;6130842;23;20021;-89
2020/12/26 05:15:34;;;;;;;25.45;14.35;;;;;;;1.47;100.00;102144.59;6129133;23;20458;-89
2020/12/26 05:18:00;;;;;;;23.17;13.07;;;;;;;1.49;100.00;102139.25;6131025;23;20016;-89
2020/12/26 05:20:28;;;;;;;19.75;13.18;;;;;;;1.52;100.00;102133.84;6153252;23;20023;-89
2020/12/26 05:23:11;;;;;;;19.33;11.80;;;;;;;1.57;100.00;102131.91;6130706;23;20013;-90
2020/12/26 05:25:45;;;;;;;21.45;13.70;;;;;;;1.57;100.00;102140.72;6152983;23;20016;-89
2020/12/26 05:28:16;;;;;;;19.58;12.35;;;;;;;1.63;100.00;102141.47;6154067;23;20013;-89
2020/12/26 05:30:43;;;;;;;18.45;10.85;;;;;;;1.67;100.00;102128.06;6129732;23;20013;-90
2020/12/26 05:33:14;;;;;;;22.17;12.57;;;;;;;1.66;99.58;102123.66;6103435;23;20454;-89
2020/12/26 05:35:49;;;;;;;18.42;10.43;;;;;;;1.68;99.77;102123.63;6129922;23;20053;-89
2020/12/26 05:38:22;;;;;;;21.15;9.57;;;;;;;1.70;99.85;102127.97;6128890;23;20039;-90
2020/12/26 05:40:56;;;;;;;19.88;10.48;;;;;;;1.74;99.67;102142.03;6118025;23;20021;-89
2020/12/26 05:43:23;;;;;;;17.70;8.80;;;;;;;1.79;99.68;102145.41;6128660;23;20013;-89
2020/12/26 05:45:52;;;;;;;12.93;8.27;;;;;;;1.80;99.56;102138.31;6129956;23;20070;-90
2020/12/26 05:48:23;;;;;;;11.88;8.00;;;;;;;1.90;98.90;102139.78;6129648;23;20028;-89
2020/12/26 05:50:53;;;;;;;14.57;7.60;;;;;;;1.89;98.84;102122.09;6117655;23;20466;-90
2020/12/26 05:53:28;;;;;;;17.23;7.95;;;;;;;1.91;98.67;102125.56;6115610;23;20394;-89
2020/12/26 05:55:54;;;;;;;13.02;6.97;;;;;;;1.90;99.15;102110.56;6129310;23;20029;-90
2020/12/26 05:58:23;;;;;;;13.32;6.50;;;;;;;1.89;98.85;102104.38;6129699;23;20075;-89
2020/12/26 06:00:51;;;;;;;14.93;5.90;;;;;;;1.95;99.11;102099.78;6131892;23;20021;-90
2020/12/26 06:03:26;;;;;;;9.65;6.47;;;;;;;1.94;98.99;102104.22;6133112;23;20044;-88
2020/12/26 06:06:02;;;;;;;9.13;6.45;;;;;;;1.96;98.90;102107.72;6130461;23;20028;-89
2020/12/26 06:08:30;;;;;;;13.43;5.50;;;;;;;1.95;98.87;102100.66;6114635;23;20044;-90
2020/12/26 06:11:00;;;;;;;11.05;4.93;;;;;;;2.00;98.12;102109.31;6140219;23;20020;-89
2020/12/26 06:13:32;;;;;;;8.10;5.28;;;;;;;2.00;98.02;102108.47;6109877;23;20013;-89
2020/12/26 06:16:20;;;;;;;14.45;5.30;;;;;;;2.02;98.14;102112.81;6137034;23;20017;-89
2020/12/26 06:18:59;;;;;;;10.10;4.40;;;;;;;2.04;98.32;102118.06;6116397;23;20024;-90
2020/12/26 06:21:27;;;;;;;10.65;4.20;;;;;;;2.08;98.49;102122.38;6127868;23;20024;-89
2020/12/26 06:23:58;;;;;;;8.07;4.28;;;;;;;2.12;98.17;102117.81;6131277;23;20017;-89
2020/12/26 06:26:32;;;;;;;10.38;4.43;;;;;;;2.13;97.55;102125.72;6155310;23;20021;-89
2020/12/26 06:28:57;;;;;;;6.95;3.85;;;;;;;2.12;97.56;102123.13;6132125;23;20017;-90
2020/12/26 06:31:23;;;;;;;8.73;4.18;;;;;;;2.19;97.91;102124.66;6115964;23;20328;-90
2020/12/26 06:33:51;;;;;;;12.15;3.90;;;;;;;2.19;97.40;102119.34;6130566;23;20394;-89
2020/12/26 06:36:18;;;;;;;7.95;4.35;;;;;;;2.17;97.27;102110.56;6129788;23;20443;-89
2020/12/26 06:38:47;;;;;;;9.55;3.67;;;;;;;2.22;98.01;102108.63;6119703;23;20359;-89
2020/12/26 06:41:19;;;;;;;9.60;3.50;;;;;;;2.21;97.87;102104.22;6129336;23;20059;-90
2020/12/26 06:43:49;;;;;;;5.18;3.50;;;;;;;2.20;98.00;102105.16;6132208;23;20020;-90
2020/12/26 06:46:23;;;;;;;9.30;3.75;;;;;;;2.25;97.74;102098.78;6140803;23;20048;-89
2020/12/26 06:48:56;;;;;;;6.05;3.33;;;;;;;2.27;97.35;102098.72;6155477;23;20803;-89
2020/12/26 06:51:36;;;;;;;6.15;3.10;;;;;;;2.29;97.04;102091.56;6117378;23;20028;-90
2020/12/26 06:54:07;;;;;;;7.13;3.05;;;;;;;2.28;97.20;102092.47;6131471;23;20028;-89
2020/12/26 06:56:33;;;;;;;5.97;3.30;;;;;;;2.32;96.72;102094.09;6132090;23;20400;-90
2020/12/26 06:59:01;;;;;;;8.80;3.33;;;;;;;2.32;96.70;102093.25;6155692;23;20021;-89
2020/12/26 07:01:31;;;;;;;7.20;3.37;;;;;;;2.31;97.05;102102.97;6155239;23;20092;-89
2020/12/26 07:04:12;;;;;;;9.45;3.08;;;;;;;2.35;97.27;102098.44;6131291;23;20044;-88
2020/12/26 07:06:47;;;;;;;8.40;3.17;;;;;;;2.37;97.09;102102.81;6155303;23;20016;-90
2020/12/26 07:09:20;;;;;;;5.32;2.75;;;;;;;2.39;96.78;102100.94;6154765;23;20088;-89
2020/12/26 07:11:53;;;;;;;6.95;3.15;;;;;;;2.44;96.45;102098.13;6132600;23;20016;-90
2020/12/26 07:14:28;;;;;;;10.55;3.17;;;;;;;2.42;96.03;102106.16;6116435;23;20017;-90
2020/12/26 07:16:55;;;;;;;8.38;2.70;;;;;;;2.42;96.37;102100.84;6131675;23;20036;-90
2020/12/26 07:19:26;;;;;;;6.53;2.72;;;;;;;2.43;96.47;102091.09;6113907;23;20030;-90
2020/12/26 07:21:55;;;;;;;5.93;2.42;;;;;;;2.41;95.98;102096.44;6156617;23;20100;-89
2020/12/26 07:24:34;;;;;;;7.65;2.65;;;;;;;2.44;96.46;102085.72;6130661;23;20020;-90
2020/12/26 07:27:38;;;;;;;4.22;2.80;;;;;;;2.47;95.97;102081.22;6131573;23;20016;-89
2020/12/26 07:30:23;;;;;;;9.52;2.90;;;;;;;2.47;96.38;102089.19;6125643;23;20037;-91
2020/12/26 07:33:11;;;;;;;7.22;2.60;;;;;;;2.42;95.54;102100.84;6118385;23;20022;-90
2020/12/26 07:35:39;;;;;;;5.18;2.95;;;;;;;2.44;95.89;102085.72;6137938;23;20536;-90
2020/12/26 07:38:25;;;;;;;7.32;3.17;;;;;;;2.43;95.65;102072.50;6128728;23;20159;-89
2020/12/26 07:41:04;;;;;;;7.13;3.28;;;;;;;2.42;96.02;102092.00;6131211;23;20072;-90
2020/12/26 07:43:44;;;;;;;;;;;;;;;2.41;96.05;102079.63;6128645;23;20025;-90
2020/12/26 07:46:29;;;;;;;6.18;2.47;;;;;;;2.35;95.83;102067.44;6115624;23;19923;-88
2020/12/26 07:48:55;;;;;;;6.43;3.10;;;;;;;2.28;96.22;102068.56;6115589;23;20028;-90
2020/12/26 07:51:26;;;;;;;12.88;2.90;;;;;;;2.24;96.23;102069.59;6116050;23;20040;-90
2020/12/26 07:54:00;;;;;;;7.50;2.85;;;;;;;2.20;96.02;102066.16;6124326;23;20025;-90
2020/12/26 07:56:32;;;;;;;7.97;3.10;;;;;;;2.19;96.34;102050.28;6123035;23;20344;-90
2020/12/26 07:58:57;;;;;;;9.68;3.38;;;;;;;2.16;96.56;102037.13;6102513;23;20014;-88
2020/12/26 08:01:30;;;;;;;8.85;3.40;;;;;;;2.23;96.68;102038.66;6106315;23;20068;-90
2020/12/26 08:04:24;;;;;;;6.45;3.60;;;;;;;2.20;96.04;102039.59;6099767;23;20048;-90
2020/12/26 08:06:51;;;;;;;8.35;3.40;;;;;;;2.27;96.44;102034.97;6099159;23;20017;-90
2020/12/26 08:09:29;;;;;;;7.55;3.80;;;;;;;2.26;96.66;102031.41;6064898;23;20018;-90
2020/12/26 08:12:16;;;;;;;8.38;3.83;;;;;;;2.34;96.32;102030.28;6071877;23;20068;-90
2020/12/26 08:15:03;;;;;;;10.40;4.07;;;;;;;2.32;96.41;102030.34;6090324;23;20074;-89
2020/12/26 08:17:42;;;;;;;11.68;4.82;;;;;;;2.38;96.05;102027.47;6073194;23;20108;-89
2020/12/26 08:20:13;;;;;;;9.38;4.28;;;;;;;2.52;96.24;102020.78;6109627;23;20419;-90
2020/12/26 08:22:59;;;;;;;9.40;3.88;;;;;;;2.51;96.31;102019.94;6096330;23;20021;-89
2020/12/26 08:26:01;;;;;;;10.65;4.43;;;;;;;2.55;96.06;102023.34;6084993;23;20340;-89
2020/12/26 08:28:27;;;;;;;9.82;4.50;;;;;;;2.61;96.01;102029.31;6073287;23;20310;-91
2020/12/26 08:31:24;;;;;;;9.88;4.70;;;;;;;2.61;95.30;102020.47;6100575;23;20072;-90
2020/12/26 08:34:02;;;;;;;9.10;4.85;;;;;;;2.62;95.50;102019.53;6126090;23;20041;-90
2020/12/26 08:37:02;;;;;;;11.30;4.78;;;;;;;2.64;95.65;102017.69;6074385;23;20021;-90
2020/12/26 08:39:52;;;;;;;9.85;5.05;;;;;;;2.64;95.18;102015.03;6115858;23;20030;-91
2020/12/26 08:42:25;;;;;;;7.65;5.32;;;;;;;2.62;95.82;102007.13;6126166;23;20024;-90
2020/12/26 08:45:04;;;;;;;9.63;6.25;;;;;;;2.59;95.67;102004.59;6096631;23;20478;-89
2020/12/26 08:47:58;;;;;;;14.75;6.45;;;;;;;2.57;95.45;101998.44;6115020;23;20025;-90
2020/12/26 08:50:46;;;;;;;12.48;6.50;;;;;;;2.57;95.26;102002.91;6147841;23;20099;-90
2020/12/26 08:56:32;;;;;;;14.57;6.40;;;;;;;2.60;95.61;102005.44;6171760;23;20064;-90
2020/12/26 08:59:02;;;;;;;14.30;8.20;;;;;;;2.63;95.35;102000.00;6130192;23;20025;-88
2020/12/26 09:01:31;;;;;;;15.90;7.60;;;;;;;2.66;95.63;101996.38;6075563;23;20024;-91
2020/12/26 09:04:06;;;;;;;15.60;6.97;;;;;;;2.73;95.55;101993.44;6085965;23;20068;-90
2020/12/26 09:06:43;;;;;;;13.43;7.45;;;;;;;2.82;95.52;101980.72;6143139;23;20017;-88
2020/12/26 09:09:26;;;;;;;12.20;7.63;;;;;;;2.86;95.42;101992.97;6114558;23;20340;-89
2020/12/26 09:12:15;;;;;;;11.32;6.88;;;;;;;2.92;94.93;101990.06;6130369;23;20443;-88
2020/12/26 09:14:57;;;;;;;18.85;7.28;;;;;;;2.93;95.08;101997.09;6136208;23;20016;-89
2020/12/26 09:17:26;;;;;;;11.45;7.18;;;;;;;2.91;94.94;101991.00;6114149;23;20020;-88
2020/12/26 09:19:57;;;;;;;13.23;8.73;;;;;;;2.89;94.65;101999.03;6129008;23;20655;-88
2020/12/26 09:22:28;;;;;;;16.83;7.80;;;;;;;2.92;94.83;101990.94;6114770;23;20014;-88
2020/12/26 09:24:59;;;;;;;13.43;8.13;;;;;;;2.92;94.37;101976.78;6117795;23;20017;-89
2020/12/26 09:27:36;;;;;;;11.80;7.00;;;;;;;2.93;94.80;101973.19;6127113;23;20052;-89
2020/12/26 09:30:11;;;;;;;13.13;7.30;;;;;;;2.92;94.60;101985.63;6156973;23;20021;-89
2020/12/26 09:33:27;;;;;;;17.90;7.93;;;;;;;2.97;94.17;101980.13;6071663;23;20022;-90
2020/12/26 09:36:05;;;;;;;17.92;8.00;;;;;;;2.98;94.99;101987.19;6145719;23;20360;-90
2020/12/26 09:38:31;;;;;;;14.45;8.35;;;;;;;2.97;94.56;101986.31;6127362;23;20478;-89
2020/12/26 09:41:40;;;;;;;16.27;8.00;;;;;;;3.04;94.60;101986.09;6152714;23;20016;-89
2020/12/26 09:44:25;;;;;;;10.95;8.02;;;;;;;3.06;94.49;101989.53;6122574;23;20017;-90
2020/12/26 09:47:10;;;;;;;14.13;7.50;;;;;;;3.08;94.17;101983.22;6138396;23;20037;-88
2020/12/26 09:49:44;;;;;;;17.55;7.90;;;;;;;3.11;94.65;101985.78;6075286;23;20073;-90
2020/12/26 09:52:18;;;;;;;12.13;7.13;;;;;;;3.14;93.97;101992.78;6103096;23;20072;-89
2020/12/26 09:54:54;;;;;;;9.82;7.57;;;;;;;3.11;94.30;101982.25;6134606;23;20368;-88
2020/12/26 09:57:21;;;;;;;15.48;7.78;;;;;;;3.06;93.92;101981.56;6098137;23;20013;-90
2020/12/26 09:59:49;;;;;;;14.27;7.50;;;;;;;3.05;94.02;101983.34;6098132;23;20031;-89
2020/12/26 10:02:26;;;;;;;12.13;7.13;;;;;;;3.09;94.04;101984.97;6091217;23;20020;-90
2020/12/26 10:05:06;;;;;;;14.00;7.10;;;;;;;3.10;94.02;101962.75;6131676;23;20298;-89
2020/12/26 10:07:32;;;;;;;15.68;8.57;;;;;;;3.17;93.25;101974.03;6119095;23;20021;-90
2020/12/26 10:10:19;;;;;;;14.48;7.07;;;;;;;3.15;93.97;101965.22;6104913;23;20020;-88
2020/12/26 10:12:59;;;;;;;12.05;7.15;;;;;;;3.17;93.72;101970.50;6097128;23;20347;-89
2020/12/26 10:15:43;;;;;;;10.32;7.15;;;;;;;3.17;93.33;101975.84;6119561;23;20509;-89
2020/12/26 10:18:29;;;;;;;9.40;6.65;;;;;;;3.18;93.04;101980.19;6155462;23;20017;-89
2020/12/26 10:20:57;;;;;;;13.93;7.10;;;;;;;3.17;93.39;101970.50;6133994;23;20021;-89
2020/12/26 10:23:37;;;;;;;12.67;6.57;;;;;;;3.23;92.53;101959.63;6110725;23;20101;-88
2020/12/26 10:26:09;;;;;;;10.98;5.97;;;;;;;3.24;92.98;101942.72;6119118;23;20661;-89
2020/12/26 10:28:38;;;;;;;12.70;6.82;;;;;;;3.27;92.79;101951.44;6116169;23;20037;-89
2020/12/26 10:31:06;;;;;;;13.75;6.68;;;;;;;3.33;92.10;101950.34;6097489;23;20013;-89
2020/12/26 10:33:34;;;;;;;9.67;6.10;;;;;;;3.31;91.70;101952.19;6086681;23;20096;-89
2020/12/26 10:36:04;;;;;;;15.10;6.32;;;;;;;3.30;91.85;101929.19;6124804;23;20044;-90
2020/12/26 10:38:29;;;;;;;12.05;6.70;;;;;;;3.31;92.02;101917.59;6131706;23;20045;-90
2020/12/26 10:40:57;;;;;;;15.70;5.68;;;;;;;3.32;91.85;101912.19;6121936;23;20035;-90
2020/12/26 10:43:26;;;;;;;8.95;5.07;;;;;;;3.37;91.40;101919.13;6133036;23;20509;-89
2020/12/26 10:45:58;;;;;;;10.45;5.10;;;;;;;3.36;91.43;101904.97;6113581;23;20486;-89
2020/12/26 10:48:25;;;;;;;10.65;6.25;;;;;;;3.42;91.57;101912.69;6119254;23;20013;-87
2020/12/26 10:50:54;;;;;;;10.80;5.43;;;;;;;3.46;91.64;101903.66;6133343;23;20012;-90
2020/12/26 10:53:30;;;;;;;8.73;5.35;;;;;;;3.52;90.83;101907.84;6117253;23;20063;-89
2020/12/26 10:56:01;;;;;;;7.53;4.78;;;;;;;3.50;91.04;101886.63;6132518;23;20373;-89
2020/12/26 10:58:32;;;;;;;10.52;5.22;;;;;;;3.62;91.16;101881.69;6119254;23;20025;-89
2020/12/26 11:01:09;;;;;;;7.55;4.78;;;;;;;3.61;90.67;101890.63;6157097;23;20017;-89
2020/12/26 11:03:35;;;;;;;12.35;5.13;;;;;;;3.56;90.82;101876.63;6132052;23;20056;-89
2020/12/26 11:08:41;;;;;;;9.18;5.72;;;;;;;3.63;90.06;101868.31;6171188;23;20401;-89
2020/12/26 11:11:10;;;;;;;12.43;6.13;;;;;;;3.60;90.52;101868.44;6123140;23;20079;-89
2020/12/26 11:13:38;;;;;;;12.13;5.30;;;;;;;3.70;91.00;101857.44;6154786;23;20024;-89
2020/12/26 11:16:14;;;;;;;8.30;5.60;;;;;;;3.74;90.40;101845.69;6120534;23;20035;-88
2020/12/26 11:18:50;;;;;;;11.40;4.80;;;;;;;3.75;90.39;101848.28;6115651;23;20047;-90
2020/12/26 11:21:18;;;;;;;9.48;4.82;;;;;;;3.75;90.37;101840.28;6131591;23;20044;-88
2020/12/26 11:23:52;;;;;;;8.65;5.32;;;;;;;3.80;90.54;101832.97;6158576;23;20017;-88
2020/12/26 11:26:33;;;;;;;11.80;5.90;;;;;;;3.75;90.21;101829.63;6106951;23;20009;-89
2020/12/26 11:29:10;;;;;;;7.35;4.85;;;;;;;3.79;89.76;101833.91;6130727;23;20013;-88
2020/12/26 11:31:38;;;;;;;12.45;5.20;;;;;;;3.82;89.58;101820.44;6136250;23;20055;-89
2020/12/26 11:34:04;;;;;;;7.32;3.85;;;;;;;3.85;89.76;101819.44;6120002;23;20025;-89
2020/12/26 11:36:32;;;;;;;8.38;4.50;;;;;;;3.83;89.69;101816.84;6134846;23;20087;-88
2020/12/26 11:39:03;;;;;;;10.45;5.13;;;;;;;3.84;89.49;101802.63;6121616;23;20056;-87
2020/12/26 11:41:32;;;;;;;9.23;4.85;;;;;;;3.84;89.37;101799.06;6179545;23;20075;-89
2020/12/26 11:43:58;;;;;;;11.93;4.85;;;;;;;3.93;89.44;101785.34;6132670;23;20017;-88
2020/12/26 11:46:24;;;;;;;8.35;5.18;;;;;;;3.96;89.11;101776.34;6130488;23;20013;-89
2020/12/26 11:48:52;;;;;;;7.28;4.30;;;;;;;3.97;89.37;101773.59;6132542;23;20028;-89